createdAt,value
2022-10-16T00:00:33.649Z,15.27
2022-10-16T00:03:00.448Z,14.98
2022-10-16T00:05:27.261Z,16.70
2022-10-16T00:07:53.964Z,15.75
2022-10-16T00:10:20.724Z,12.93
2022-10-16T00:12:47.557Z,18.42
2022-10-16T00:15:14.593Z,19.05
2022-10-16T00:17:41.332Z,15.00
2022-10-16T00:20:08.950Z,14.27
2022-10-16T00:22:35.660Z,16.85
2022-10-16T00:25:02.409Z,15.30
2022-10-16T00:27:28.982Z,15.38
2022-10-16T00:29:55.836Z,15.82
2022-10-16T00:32:22.845Z,19.77
2022-10-16T00:34:49.795Z,17.30
2022-10-16T00:37:16.509Z,18.58
2022-10-16T00:39:43.234Z,15.38
2022-10-16T00:42:17.184Z,17.90
2022-10-16T00:44:56.808Z,17.85
2022-10-16T00:47:26.759Z,16.23
2022-10-16T00:50:00.255Z,17.02
2022-10-16T00:52:27.499Z,16.77
2022-10-16T00:54:55.450Z,17.00
2022-10-16T00:57:23.896Z,16.95
2022-10-16T00:59:51.003Z,15.75
2022-10-16T01:02:18.664Z,16.35
2022-10-16T01:04:53.377Z,16.58
2022-10-16T01:07:27.056Z,15.95
2022-10-16T01:10:02.992Z,15.05
2022-10-16T01:13:12.980Z,17.25
2022-10-16T01:16:17.106Z,14.38
2022-10-16T01:18:55.714Z,15.75
2022-10-16T01:21:30.914Z,15.02
2022-10-16T01:24:06.001Z,17.63
2022-10-16T01:26:46.343Z,17.70
2022-10-16T01:29:27.349Z,15.80
2022-10-16T01:32:00.893Z,19.10
2022-10-16T01:34:36.397Z,20.63
2022-10-16T01:37:13.446Z,21.33
2022-10-16T01:39:42.633Z,19.27
2022-10-16T01:42:12.181Z,16.58
2022-10-16T01:44:40.694Z,15.55
2022-10-16T01:47:11.282Z,18.42
2022-10-16T01:49:41.772Z,24.00
2022-10-16T01:52:13.650Z,17.77
2022-10-16T01:54:44.116Z,17.48
2022-10-16T01:57:12.494Z,18.15
2022-10-16T01:59:45.862Z,17.70
2022-10-16T02:02:14.380Z,19.30
2022-10-16T02:04:47.309Z,18.52
2022-10-16T02:07:15.601Z,17.63
2022-10-16T02:09:42.358Z,17.08
2022-10-16T02:12:34.651Z,16.92
2022-10-16T02:15:01.823Z,18.25
2022-10-16T02:17:28.965Z,18.33
2022-10-16T02:19:57.484Z,17.00
2022-10-16T02:22:37.365Z,18.17
2022-10-16T02:25:10.934Z,16.88
2022-10-16T02:27:56.041Z,15.40
2022-10-16T02:30:30.591Z,15.35
2022-10-16T02:33:00.670Z,16.05
2022-10-16T02:35:28.898Z,16.33
2022-10-16T02:37:57.365Z,16.10
2022-10-16T02:40:25.516Z,15.93
2022-10-16T02:42:54.250Z,16.70
2022-10-16T02:45:21.632Z,16.35
2022-10-16T02:47:48.700Z,15.40
2022-10-16T02:50:15.494Z,16.50
2022-10-16T02:52:42.198Z,13.70
2022-10-16T02:55:09.051Z,16.02
2022-10-16T02:57:37.812Z,15.32
2022-10-16T03:00:08.545Z,15.65
2022-10-16T03:02:35.484Z,13.23
2022-10-16T03:05:02.283Z,15.95
2022-10-16T03:07:29.516Z,17.52
2022-10-16T03:09:56.527Z,15.32
2022-10-16T03:12:25.860Z,14.30
2022-10-16T03:14:52.673Z,15.35
2022-10-16T03:17:19.436Z,13.88
2022-10-16T03:19:46.144Z,13.68
2022-10-16T03:22:12.766Z,14.23
2022-10-16T03:24:39.521Z,14.02
2022-10-16T03:27:06.202Z,15.52
2022-10-16T03:29:33.941Z,14.73
2022-10-16T03:32:01.272Z,14.95
2022-10-16T03:34:27.940Z,14.40
2022-10-16T03:36:54.634Z,12.82
2022-10-16T03:39:21.386Z,14.07
2022-10-16T03:41:48.505Z,14.40
2022-10-16T03:44:15.188Z,14.90
2022-10-16T03:46:41.964Z,14.70
2022-10-16T03:49:09.821Z,16.13
2022-10-16T03:51:37.057Z,17.48
2022-10-16T03:54:03.955Z,16.92
2022-10-16T03:56:30.641Z,14.25
2022-10-16T03:58:57.235Z,15.52
2022-10-16T04:01:24.021Z,15.65
2022-10-16T04:03:50.688Z,15.60
2022-10-16T04:06:17.427Z,14.70
2022-10-16T04:08:44.636Z,15.13
2022-10-16T04:11:11.321Z,15.10
2022-10-16T04:13:38.273Z,14.82
2022-10-16T04:16:05.158Z,15.68
2022-10-16T04:18:31.869Z,15.40
2022-10-16T04:21:03.834Z,15.48
2022-10-16T04:23:30.548Z,14.98
2022-10-16T04:25:57.296Z,15.73
2022-10-16T04:28:26.292Z,16.45
2022-10-16T04:30:53.125Z,14.00
2022-10-16T04:33:19.699Z,14.18
2022-10-16T04:35:46.382Z,16.13
2022-10-16T04:38:13.342Z,13.13
2022-10-16T04:40:39.978Z,14.25
2022-10-16T04:43:06.989Z,13.07
2022-10-16T04:45:33.648Z,14.63
2022-10-16T04:48:01.503Z,14.18
2022-10-16T04:50:28.231Z,13.70
2022-10-16T04:52:54.920Z,14.00
2022-10-16T04:55:21.639Z,12.73
2022-10-16T04:57:48.243Z,14.77
2022-10-16T05:00:15.492Z,14.95
2022-10-16T05:02:42.313Z,14.60
2022-10-16T05:05:09.368Z,14.65
2022-10-16T05:07:36.095Z,15.00
2022-10-16T05:10:03.107Z,13.90
2022-10-16T05:12:30.198Z,14.70
2022-10-16T05:14:59.868Z,17.35
2022-10-16T05:17:27.526Z,13.90
2022-10-16T05:19:54.719Z,13.10
2022-10-16T05:22:21.442Z,15.65
2022-10-16T05:24:48.160Z,15.32
2022-10-16T05:27:20.066Z,14.82
2022-10-16T05:29:48.144Z,14.05
2022-10-16T05:32:16.244Z,14.27
2022-10-16T05:34:43.193Z,13.77
2022-10-16T05:37:10.059Z,14.70
2022-10-16T05:39:37.954Z,17.70
2022-10-16T05:42:05.495Z,19.27
2022-10-16T05:47:04.053Z,15.18
2022-10-16T05:49:30.726Z,17.00
2022-10-16T05:51:57.625Z,15.45
2022-10-16T05:54:24.345Z,17.13
2022-10-16T05:56:50.934Z,16.58
2022-10-16T05:59:17.713Z,16.48
2022-10-16T06:01:44.522Z,17.65
2022-10-16T06:06:42.854Z,18.33
2022-10-16T06:09:10.721Z,17.77
2022-10-16T06:11:37.713Z,18.40
2022-10-16T06:14:07.942Z,18.70
2022-10-16T06:16:36.662Z,19.55
2022-10-16T06:19:07.051Z,18.85
2022-10-16T06:21:34.009Z,17.88
2022-10-16T06:24:00.699Z,45.83
2022-10-16T06:26:29.754Z,63.40
2022-10-16T06:28:58.134Z,80.53
2022-10-16T06:31:28.613Z,92.78
2022-10-16T06:33:56.069Z,92.82
2022-10-16T06:36:23.743Z,93.13
2022-10-16T06:38:50.735Z,72.18
2022-10-16T06:41:21.099Z,68.38
2022-10-16T06:43:48.542Z,54.47
2022-10-16T06:46:17.921Z,43.38
2022-10-16T06:48:44.941Z,38.15
2022-10-16T06:51:14.132Z,36.20
2022-10-16T06:54:01.125Z,31.08
2022-10-16T06:56:30.792Z,27.50
2022-10-16T06:58:57.781Z,26.10
2022-10-16T07:01:25.819Z,28.48
2022-10-16T07:03:53.771Z,25.65
2022-10-16T07:06:21.969Z,29.33
2022-10-16T07:08:49.085Z,27.58
2022-10-16T07:11:18.776Z,25.77
2022-10-16T07:13:50.891Z,27.08
2022-10-16T07:16:26.887Z,26.30
2022-10-16T07:19:00.243Z,72.07
2022-10-16T07:21:30.206Z,69.15
2022-10-16T07:24:02.458Z,75.93
2022-10-16T07:26:31.267Z,92.05
2022-10-16T07:28:58.485Z,97.40
2022-10-16T07:31:25.412Z,95.10
2022-10-16T07:33:53.014Z,106.20
2022-10-16T07:36:21.066Z,102.93
2022-10-16T07:38:48.053Z,117.07
2022-10-16T07:41:17.342Z,75.53
2022-10-16T07:43:52.087Z,65.10
2022-10-16T07:46:20.461Z,36.35
2022-10-16T07:48:48.296Z,33.78
2022-10-16T07:51:17.368Z,45.92
2022-10-16T07:53:44.189Z,110.60
2022-10-16T07:56:11.605Z,138.20
2022-10-16T07:58:38.877Z,19.00
2022-10-16T08:01:08.631Z,32.97
2022-10-16T08:03:35.649Z,18.10
2022-10-16T08:06:03.698Z,18.55
2022-10-16T08:08:30.875Z,20.83
2022-10-16T08:10:57.799Z,19.75
2022-10-16T08:13:27.741Z,21.92
2022-10-16T08:15:55.598Z,61.78
2022-10-16T08:18:24.258Z,34.92
2022-10-16T08:21:00.909Z,40.70
2022-10-16T08:23:28.693Z,61.22
2022-10-16T08:25:56.173Z,55.40
2022-10-16T08:28:23.966Z,78.85
2022-10-16T08:30:50.818Z,59.17
2022-10-16T08:33:17.462Z,72.47
2022-10-16T08:35:44.407Z,53.15
2022-10-16T08:38:11.575Z,50.83
2022-10-16T08:40:38.884Z,40.58
2022-10-16T08:43:36.555Z,28.33
2022-10-16T08:46:27.809Z,18.08
2022-10-16T08:48:58.118Z,14.18
2022-10-16T08:51:32.090Z,9.68
2022-10-16T08:54:02.493Z,10.55
2022-10-16T08:56:29.681Z,10.52
2022-10-16T08:59:01.533Z,9.80
2022-10-16T09:01:42.855Z,10.60
2022-10-16T09:04:36.864Z,11.70
2022-10-16T09:07:20.645Z,12.73
2022-10-16T09:10:26.965Z,12.10
2022-10-16T09:13:12.015Z,13.05
2022-10-16T09:15:50.158Z,11.60
2022-10-16T09:18:20.892Z,11.65
2022-10-16T09:20:57.012Z,12.73
2022-10-16T09:23:27.964Z,12.50
2022-10-16T09:25:57.492Z,10.88
2022-10-16T09:28:24.402Z,11.30
2022-10-16T09:30:51.261Z,9.93
2022-10-16T09:33:21.709Z,10.15
2022-10-16T09:35:54.607Z,11.43
2022-10-16T09:38:27.675Z,10.68
2022-10-16T09:41:02.387Z,12.23
2022-10-16T09:43:36.890Z,11.40
2022-10-16T09:46:05.131Z,12.65
2022-10-16T09:48:45.852Z,14.50
2022-10-16T09:51:25.782Z,13.93
2022-10-16T09:53:57.888Z,13.52
2022-10-16T09:56:43.319Z,15.32
2022-10-16T09:59:18.386Z,12.63
2022-10-16T10:01:49.208Z,14.25
2022-10-16T10:04:16.057Z,13.05
2022-10-16T10:06:49.463Z,12.25
2022-10-16T10:09:24.000Z,13.60
2022-10-16T10:12:04.232Z,13.98
2022-10-16T10:14:47.164Z,17.67
2022-10-16T10:17:24.088Z,16.83
2022-10-16T10:19:53.972Z,14.82
2022-10-16T10:22:40.497Z,16.40
2022-10-16T10:25:12.934Z,17.17
2022-10-16T10:27:51.373Z,16.27
2022-10-16T10:30:20.628Z,17.38
2022-10-16T10:32:56.394Z,19.88
2022-10-16T10:35:29.960Z,16.80
2022-10-16T10:38:10.717Z,19.38
2022-10-16T10:41:15.741Z,17.02
2022-10-16T10:43:46.266Z,15.80
2022-10-16T10:46:35.567Z,16.88
2022-10-16T10:49:18.868Z,20.75
2022-10-16T10:52:22.465Z,22.58
2022-10-16T10:55:10.345Z,18.95
2022-10-16T10:58:05.320Z,20.98
2022-10-16T11:00:39.804Z,22.17
2022-10-16T11:03:36.151Z,20.60
2022-10-16T11:06:08.486Z,21.27
2022-10-16T11:08:49.469Z,201.65
2022-10-16T11:11:38.654Z,397.48
2022-10-16T11:14:11.257Z,540.35
2022-10-16T11:16:43.588Z,506.33
2022-10-16T11:20:01.742Z,521.33
2022-10-16T11:22:35.357Z,520.58
2022-10-16T11:25:19.623Z,500.60
2022-10-16T11:27:53.111Z,483.27
2022-10-16T11:30:26.614Z,491.70
2022-10-16T11:33:05.463Z,243.63
2022-10-16T11:35:47.139Z,325.77
2022-10-16T11:38:39.364Z,430.10
2022-10-16T11:41:18.450Z,381.80
2022-10-16T11:43:58.217Z,509.55
2022-10-16T11:46:26.837Z,476.30
2022-10-16T11:49:15.772Z,528.90
2022-10-16T11:51:50.044Z,472.25
2022-10-16T11:54:31.918Z,471.75
2022-10-16T11:57:08.358Z,532.20
2022-10-16T12:00:12.256Z,441.52
2022-10-16T12:02:55.569Z,495.40
2022-10-16T12:05:31.037Z,466.15
2022-10-16T12:08:09.218Z,480.85
2022-10-16T12:13:32.512Z,453.48
2022-10-16T12:16:25.753Z,446.90
2022-10-16T12:19:14.437Z,473.52
2022-10-16T12:21:42.474Z,443.77
2022-10-16T12:24:23.314Z,434.67
2022-10-16T12:26:53.219Z,399.33
2022-10-16T12:29:31.569Z,494.42
2022-10-16T12:31:58.809Z,505.38
2022-10-16T12:34:41.427Z,479.90
2022-10-16T12:37:22.144Z,419.35
2022-10-16T12:39:50.304Z,398.77
2022-10-16T12:42:25.687Z,447.70
2022-10-16T12:44:53.245Z,433.15
2022-10-16T12:47:44.277Z,435.45
2022-10-16T12:50:32.013Z,407.58
2022-10-16T12:53:00.423Z,494.40
2022-10-16T12:55:28.580Z,421.80
2022-10-16T12:58:34.562Z,426.02
2022-10-16T13:01:22.896Z,420.50
2022-10-16T13:04:03.239Z,429.45
2022-10-16T13:07:17.674Z,442.77
2022-10-16T13:09:56.630Z,441.73
2022-10-16T13:13:05.036Z,472.95
2022-10-16T13:15:36.479Z,482.52
2022-10-16T13:18:15.453Z,481.08
2022-10-16T13:21:22.349Z,489.85
2022-10-16T13:24:24.123Z,456.40
2022-10-16T13:27:01.866Z,502.30
2022-10-16T13:29:35.419Z,520.95
2022-10-16T13:32:08.598Z,528.47
2022-10-16T13:34:47.026Z,515.75
2022-10-16T13:37:22.166Z,460.48
2022-10-16T13:39:49.018Z,473.73
2022-10-16T13:42:27.773Z,503.85
2022-10-16T13:44:56.832Z,523.80
2022-10-16T13:47:29.586Z,542.40
2022-10-16T13:50:07.261Z,515.60
2022-10-16T13:52:42.438Z,586.63
2022-10-16T13:55:18.581Z,523.83
2022-10-16T13:57:52.020Z,522.83
2022-10-16T14:00:31.227Z,539.38
2022-10-16T14:03:15.292Z,534.78
2022-10-16T14:05:51.800Z,540.90
2022-10-16T14:08:18.856Z,578.58
2022-10-16T14:10:50.908Z,603.90
2022-10-16T14:13:35.033Z,592.63
2022-10-16T14:16:07.992Z,594.03
2022-10-16T14:18:36.007Z,615.97
2022-10-16T14:21:08.256Z,623.15
2022-10-16T14:23:40.129Z,631.92
2022-10-16T14:26:10.226Z,638.50
2022-10-16T14:28:38.665Z,617.28
2022-10-16T14:31:26.891Z,603.10
2022-10-16T14:33:53.787Z,609.45
2022-10-16T14:36:22.850Z,630.00
2022-10-16T14:39:20.305Z,653.95
2022-10-16T14:41:50.275Z,654.83
2022-10-16T14:44:19.131Z,656.80
2022-10-16T14:46:47.016Z,633.08
2022-10-16T14:49:13.599Z,669.13
2022-10-16T14:51:43.035Z,714.88
2022-10-16T14:54:11.928Z,724.83
2022-10-16T14:56:59.534Z,782.53
2022-10-16T14:59:34.815Z,839.33
2022-10-16T15:02:10.392Z,706.20
2022-10-16T15:04:37.144Z,698.00
2022-10-16T15:07:03.767Z,556.30
2022-10-16T15:09:30.501Z,522.47
2022-10-16T15:11:57.328Z,392.63
2022-10-16T15:14:26.682Z,313.33
2022-10-16T15:16:53.326Z,285.00
2022-10-16T15:19:20.040Z,241.05
2022-10-16T15:21:47.005Z,227.07
2022-10-16T15:24:17.833Z,201.45
2022-10-16T15:26:47.716Z,196.75
2022-10-16T15:29:14.496Z,164.30
2022-10-16T15:31:43.705Z,70.90
2022-10-16T15:34:12.576Z,75.88
2022-10-16T15:36:40.021Z,70.55
2022-10-16T15:39:12.103Z,100.30
2022-10-16T15:41:38.868Z,119.38
2022-10-16T15:44:05.655Z,143.48
2022-10-16T15:46:34.721Z,138.75
2022-10-16T15:49:01.656Z,109.97
2022-10-16T15:51:30.403Z,146.88
2022-10-16T15:53:58.120Z,144.70
2022-10-16T15:56:26.454Z,233.23
2022-10-16T15:58:54.875Z,236.88
2022-10-16T16:01:24.747Z,253.20
2022-10-16T16:03:55.198Z,225.15
2022-10-16T16:06:24.698Z,202.50
2022-10-16T16:08:52.195Z,165.32
2022-10-16T16:11:20.318Z,140.93
2022-10-16T16:13:47.600Z,132.52
2022-10-16T16:16:17.630Z,129.90
2022-10-16T16:18:45.325Z,128.85
2022-10-16T16:21:13.284Z,111.70
2022-10-16T16:23:39.888Z,117.03
2022-10-16T16:26:11.004Z,155.85
2022-10-16T16:28:38.378Z,101.00
2022-10-16T16:31:05.566Z,101.22
2022-10-16T16:33:32.507Z,96.97
2022-10-16T16:36:01.128Z,102.93
2022-10-16T16:38:28.806Z,119.75
2022-10-16T16:40:56.449Z,112.68
2022-10-16T16:43:28.855Z,101.53
2022-10-16T16:45:55.738Z,100.10
2022-10-16T16:48:23.259Z,98.65
2022-10-16T16:50:53.040Z,148.65
2022-10-16T16:53:19.860Z,136.35
2022-10-16T16:55:46.784Z,219.52
2022-10-16T16:58:13.500Z,139.45
2022-10-16T17:00:56.451Z,109.43
2022-10-16T17:03:26.437Z,110.03
2022-10-16T17:06:00.299Z,108.82
2022-10-16T17:08:28.327Z,299.85
2022-10-16T17:10:56.204Z,222.98
2022-10-16T17:13:24.394Z,310.65
2022-10-16T17:15:51.860Z,152.77
2022-10-16T17:18:18.693Z,123.03
2022-10-16T17:20:45.584Z,175.68
2022-10-16T17:23:13.013Z,124.47
2022-10-16T17:25:40.693Z,88.55
2022-10-16T17:28:08.625Z,123.68
2022-10-16T17:30:35.853Z,87.90
2022-10-16T17:33:02.743Z,109.85
2022-10-16T17:35:29.623Z,89.82
2022-10-16T17:37:56.535Z,89.47
2022-10-16T17:40:23.212Z,122.50
2022-10-16T17:42:49.782Z,201.77
2022-10-16T17:45:16.470Z,189.27
2022-10-16T17:47:43.148Z,227.75
2022-10-16T17:50:13.337Z,191.55
2022-10-16T17:52:42.368Z,154.25
2022-10-16T17:55:09.720Z,119.35
2022-10-16T17:57:36.295Z,130.50
2022-10-16T18:00:03.831Z,186.80
2022-10-16T18:02:30.719Z,182.27
2022-10-16T18:04:57.524Z,94.43
2022-10-16T18:07:26.846Z,118.75
2022-10-16T18:10:10.413Z,248.98
2022-10-16T18:12:39.104Z,267.52
2022-10-16T18:15:06.358Z,200.68
2022-10-16T18:17:37.733Z,353.85
2022-10-16T18:20:07.242Z,283.15
2022-10-16T18:22:38.375Z,342.98
2022-10-16T18:25:06.422Z,264.75
2022-10-16T18:27:34.575Z,349.48
2022-10-16T18:30:01.228Z,325.50
2022-10-16T18:32:28.253Z,355.70
2022-10-16T18:34:55.388Z,399.35
2022-10-16T18:37:24.103Z,415.40
2022-10-16T18:39:50.740Z,352.48
2022-10-16T18:42:21.026Z,368.27
2022-10-16T18:44:49.158Z,327.92
2022-10-16T18:47:19.881Z,334.58
2022-10-16T18:49:49.558Z,346.02
2022-10-16T18:52:16.493Z,354.23
2022-10-16T18:54:43.262Z,450.55
2022-10-16T18:57:09.999Z,346.15
2022-10-16T18:59:36.742Z,198.90
2022-10-16T19:02:03.596Z,207.80
2022-10-16T19:04:30.994Z,341.05
2022-10-16T19:06:57.819Z,367.35
2022-10-16T19:09:25.805Z,339.23
2022-10-16T19:11:53.245Z,367.30
2022-10-16T19:14:21.271Z,297.70
2022-10-16T19:16:48.912Z,377.92
2022-10-16T19:19:18.958Z,340.85
2022-10-16T19:21:47.810Z,425.58
2022-10-16T19:24:15.552Z,423.92
2022-10-16T19:26:42.546Z,427.42
2022-10-16T19:29:10.733Z,441.23
2022-10-16T19:31:37.570Z,358.80
2022-10-16T19:34:06.868Z,311.13
2022-10-16T19:36:38.092Z,426.02
2022-10-16T19:39:12.796Z,306.17
2022-10-16T19:41:39.858Z,229.63
2022-10-16T19:44:08.457Z,208.82
2022-10-16T19:46:38.506Z,163.52
2022-10-16T19:49:07.870Z,153.18
2022-10-16T19:51:35.438Z,143.00
2022-10-16T19:54:12.446Z,266.73
2022-10-16T19:56:39.803Z,236.02
2022-10-16T19:59:11.755Z,148.07
2022-10-16T20:01:39.406Z,132.55
2022-10-16T20:04:06.225Z,194.13
2022-10-16T20:06:33.107Z,282.65
2022-10-16T20:08:59.804Z,232.30
2022-10-16T20:11:29.441Z,188.98
2022-10-16T20:13:56.457Z,287.17
2022-10-16T20:16:23.666Z,356.27
2022-10-16T20:18:51.765Z,245.13
2022-10-16T20:21:20.926Z,240.90
2022-10-16T20:23:49.286Z,179.75
2022-10-16T20:26:16.561Z,129.35
2022-10-16T20:28:44.127Z,147.10
2022-10-16T20:31:18.382Z,167.88
2022-10-16T20:36:13.742Z,244.23
2022-10-16T20:38:41.948Z,238.02
2022-10-16T20:41:10.331Z,166.20
2022-10-16T20:43:41.218Z,160.95
2022-10-16T20:46:10.206Z,164.13
2022-10-16T20:48:41.072Z,194.30
2022-10-16T20:51:31.972Z,300.25
2022-10-16T20:54:01.596Z,269.60
2022-10-16T20:56:30.768Z,212.50
2022-10-16T20:58:58.264Z,153.63
2022-10-16T21:01:26.995Z,231.82
2022-10-16T21:03:59.784Z,290.20
2022-10-16T21:06:26.876Z,288.08
2022-10-16T21:08:54.409Z,304.73
2022-10-16T21:11:24.442Z,413.17
2022-10-16T21:13:56.093Z,347.25
2022-10-16T21:16:22.940Z,362.20
2022-10-16T21:18:50.387Z,397.20
2022-10-16T21:21:28.422Z,458.73
2022-10-16T21:23:57.482Z,410.58
2022-10-16T21:26:28.205Z,292.70
2022-10-16T21:29:07.037Z,328.77
2022-10-16T21:31:34.600Z,383.83
2022-10-16T21:34:01.771Z,437.13
2022-10-16T21:36:33.588Z,539.15
2022-10-16T21:39:14.845Z,573.45
2022-10-16T21:41:43.750Z,589.63
2022-10-16T21:44:11.373Z,577.13
2022-10-16T21:46:40.308Z,599.47
2022-10-16T21:49:10.257Z,569.20
2022-10-16T21:51:40.187Z,554.53
2022-10-16T21:54:10.217Z,566.75
2022-10-16T21:56:36.967Z,596.95
2022-10-16T21:59:04.093Z,584.03
2022-10-16T22:01:31.236Z,587.80
2022-10-16T22:03:58.118Z,538.33
2022-10-16T22:06:27.555Z,507.92
2022-10-16T22:08:57.228Z,497.40
2022-10-16T22:11:39.176Z,512.35
2022-10-16T22:14:12.462Z,478.25
2022-10-16T22:16:39.396Z,512.13
2022-10-16T22:19:09.732Z,527.30
2022-10-16T22:21:38.933Z,525.13
2022-10-16T22:24:06.670Z,536.25
2022-10-16T22:26:34.141Z,554.80
2022-10-16T22:29:00.817Z,567.50
2022-10-16T22:31:27.460Z,505.60
2022-10-16T22:33:59.525Z,534.38
2022-10-16T22:36:26.893Z,555.55
2022-10-16T22:38:54.510Z,554.92
2022-10-16T22:41:21.990Z,557.92
2022-10-16T22:43:49.236Z,527.60
2022-10-16T22:46:18.854Z,539.35
2022-10-16T22:48:46.142Z,558.05
2022-10-16T22:51:17.280Z,537.60
2022-10-16T22:53:45.957Z,553.78
2022-10-16T22:56:13.533Z,557.08
2022-10-16T22:58:40.367Z,503.00
2022-10-16T23:01:18.522Z,533.28
2022-10-16T23:03:45.113Z,528.42
2022-10-16T23:06:11.832Z,514.20
2022-10-16T23:08:38.518Z,529.20
2022-10-16T23:11:07.208Z,552.72
2022-10-16T23:13:40.709Z,527.90
2022-10-16T23:16:07.796Z,546.00
2022-10-16T23:18:34.958Z,525.05
2022-10-16T23:21:06.811Z,517.25
2022-10-16T23:23:37.876Z,516.97
2022-10-16T23:26:13.110Z,523.30
2022-10-16T23:28:40.346Z,497.60
2022-10-16T23:31:08.377Z,504.85
2022-10-16T23:33:36.655Z,520.97
2022-10-16T23:36:08.566Z,554.75
2022-10-16T23:38:35.426Z,550.63
2022-10-16T23:41:02.230Z,521.33
2022-10-16T23:43:29.354Z,526.97
2022-10-16T23:45:56.337Z,532.63
2022-10-16T23:48:25.812Z,534.58
2022-10-16T23:50:52.762Z,542.10
2022-10-16T23:53:19.698Z,526.65
2022-10-16T23:55:46.637Z,518.70
2022-10-16T23:58:13.576Z,542.08
